Time;durP1;ratioP1;P1;durP2;ratioP2;P2;SDS_P1;SDS_P2;PMS_P1;PMS_P2;Temp;Humidity;BMP_temperature;BMP_pressure;BME280_temperature;BME280_humidity;BME280_pressure;Samples;Min_cycle;Max_cycle;Signal;HPM_P1;HPM_P2
2021/12/22 00:01:06;;;;;;;16.58;6.97;;;27.10;98.70;;;;;;5131172;27;20457;-86
2021/12/22 00:03:33;;;;;;;14.05;6.63;;;27.50;98.60;;;;;;5132007;27;20725;-87
2021/12/22 00:06:00;;;;;;;13.30;6.68;;;27.90;98.30;;;;;;5135015;27;20376;-89
2021/12/22 00:08:28;;;;;;;14.65;6.72;;;28.30;96.80;;;;;;5133024;27;20396;-89
2021/12/22 00:10:56;;;;;;;15.32;6.72;;;28.20;96.60;;;;;;5114420;27;20385;-88
2021/12/22 00:13:23;;;;;;;14.20;6.90;;;28.50;95.90;;;;;;5132952;27;20442;-89
2021/12/22 00:15:50;;;;;;;13.90;6.35;;;28.50;95.90;;;;;;5133758;27;20396;-89
2021/12/22 00:18:17;;;;;;;14.05;6.55;;;28.50;95.90;;;;;;5115847;27;20432;-88
2021/12/22 00:20:44;;;;;;;10.77;6.65;;;28.70;95.60;;;;;;5114578;27;20369;-89
2021/12/22 00:23:11;;;;;;;11.43;6.28;;;29.10;94.40;;;;;;5132502;27;20489;-89
2021/12/22 00:25:38;;;;;;;13.98;6.28;;;29.50;93.60;;;;;;5113325;27;20442;-88
2021/12/22 00:28:06;;;;;;;12.68;6.70;;;29.60;92.70;;;;;;5133081;27;20852;-88
2021/12/22 00:30:33;;;;;;;12.65;6.72;;;29.50;93.30;;;;;;5116386;27;20875;-89
2021/12/22 00:33:04;;;;;;;14.05;6.75;;;29.30;92.60;;;;;;5135145;27;20408;-89
2021/12/22 00:35:39;;;;;;;12.52;6.43;;;29.70;93.60;;;;;;5133298;27;20856;-89
2021/12/22 00:38:11;;;;;;;13.02;6.07;;;30.00;91.90;;;;;;5114663;27;20416;-88
2021/12/22 00:40:39;;;;;;;11.90;6.50;;;30.20;91.50;;;;;;5131651;27;20385;-90
2021/12/22 00:43:06;;;;;;;11.53;6.33;;;30.40;91.10;;;;;;5131222;27;20464;-88
2021/12/22 00:45:34;;;;;;;11.82;6.47;;;30.90;86.40;;;;;;5131079;27;20365;-88
2021/12/22 00:48:03;;;;;;;12.98;6.80;;;31.20;81.70;;;;;;5113261;27;20805;-89
2021/12/22 00:50:31;;;;;;;12.60;6.40;;;31.20;79.80;;;;;;5112286;27;20482;-89
2021/12/22 00:52:59;;;;;;;12.20;6.22;;;30.60;84.50;;;;;;5113882;27;20404;-89
2021/12/22 00:55:26;;;;;;;12.05;5.85;;;30.60;85.00;;;;;;5113382;27;20440;-90
2021/12/22 00:57:54;;;;;;;10.32;5.97;;;30.80;83.20;;;;;;5112722;27;20377;-86
2021/12/22 01:00:24;;;;;;;12.27;6.00;;;31.20;81.30;;;;;;5131190;27;20415;-90
2021/12/22 01:02:51;;;;;;;11.90;5.85;;;31.20;80.60;;;;;;5132782;27;20500;-88
2021/12/22 01:05:19;;;;;;;12.48;6.30;;;31.10;82.00;;;;;;5113281;27;20906;-89
2021/12/22 01:07:49;;;;;;;11.05;6.28;;;31.10;78.40;;;;;;5131883;27;20896;-88
2021/12/22 01:10:19;;;;;;;10.40;6.13;;;31.00;81.30;;;;;;5131956;27;20448;-90
2021/12/22 01:12:47;;;;;;;12.18;5.80;;;31.60;81.60;;;;;;5112812;27;20376;-90
2021/12/22 01:15:14;;;;;;;10.13;5.80;;;32.00;79.30;;;;;;5131700;27;20389;-90
2021/12/22 01:17:45;;;;;;;11.95;5.80;;;32.00;77.50;;;;;;5112805;27;20377;-88
2021/12/22 01:20:48;;;;;;;11.10;5.30;;;32.00;74.70;;;;;;5130481;27;20410;-89
2021/12/22 01:23:06;;;;;;;12.27;5.47;;;31.90;77.40;;;;;;5129015;27;20418;-80
2021/12/22 01:25:42;;;;;;;9.80;4.90;;;32.10;74.70;;;;;;5129999;27;20409;-84
2021/12/22 01:28:10;;;;;;;9.23;5.00;;;32.40;74.60;;;;;;5131204;27;20372;-83
2021/12/22 01:30:43;;;;;;;10.77;5.53;;;33.00;73.10;;;;;;5130171;27;20373;-85
2021/12/22 01:33:10;;;;;;;11.18;4.93;;;33.30;67.50;;;;;;5130761;27;20369;-86
2021/12/22 01:35:37;;;;;;;10.95;5.00;;;33.70;67.10;;;;;;5130309;27;20404;-84
2021/12/22 01:38:06;;;;;;;10.18;4.95;;;34.10;66.40;;;;;;5129765;27;20379;-89
2021/12/22 01:40:42;;;;;;;11.45;4.63;;;34.40;63.10;;;;;;5129770;27;20896;-81
2021/12/22 01:43:10;;;;;;;12.73;4.97;;;34.30;64.50;;;;;;5129541;27;20368;-81
2021/12/22 01:51:36;;;;;;;10.07;4.68;;;34.80;61.70;;;;;;5129906;27;20368;-81
2021/12/22 01:54:11;;;;;;;10.43;4.75;;;34.90;59.40;;;;;;5113849;27;20879;-81
2021/12/22 01:56:39;;;;;;;8.45;4.45;;;34.80;59.10;;;;;;5129994;27;20466;-81
2021/12/22 01:59:08;;;;;;;11.52;4.70;;;34.40;60.60;;;;;;5129784;27;20381;-84
2021/12/22 02:01:36;;;;;;;8.63;4.00;;;34.50;60.50;;;;;;5128521;27;20479;-88
2021/12/22 02:04:06;;;;;;;9.50;4.50;;;34.70;59.80;;;;;;5111026;27;20381;-82
2021/12/22 02:06:33;;;;;;;10.63;4.22;;;34.80;60.00;;;;;;5129935;27;20377;-83
2021/12/22 02:09:00;;;;;;;9.60;4.57;;;35.10;58.20;;;;;;5129619;27;20870;-82
2021/12/22 02:11:27;;;;;;;7.80;4.40;;;35.40;61.00;;;;;;5129729;27;20482;-82
2021/12/22 02:13:59;;;;;;;8.27;4.20;;;35.70;59.40;;;;;;5129906;27;20778;-82
2021/12/22 02:16:29;;;;;;;11.43;4.53;;;36.10;58.60;;;;;;5131688;27;20867;-83
2021/12/22 02:18:59;;;;;;;9.43;4.38;;;36.40;56.00;;;;;;5135138;27;20450;-83
2021/12/22 02:21:29;;;;;;;10.52;4.28;;;36.80;57.00;;;;;;5131613;27;20365;-81
2021/12/22 02:23:58;;;;;;;8.00;4.32;;;36.80;53.40;;;;;;5129838;27;20361;-84
2021/12/22 02:26:34;;;;;;;9.03;4.80;;;36.70;55.70;;;;;;5129452;27;20369;-81
2021/12/22 02:29:06;;;;;;;9.30;4.73;;;36.80;54.00;;;;;;5129611;27;20365;-80
2021/12/22 02:31:43;;;;;;;10.33;4.93;;;36.70;53.40;;;;;;5128920;27;20434;-79
2021/12/22 02:34:16;;;;;;;9.32;4.43;;;36.80;53.80;;;;;;5128829;27;20463;-82
2021/12/22 02:36:44;;;;;;;10.93;4.57;;;37.10;52.50;;;;;;5128832;27;20404;-84
2021/12/22 02:39:12;;;;;;;11.40;4.70;;;36.90;52.60;;;;;;5128864;27;20458;-82
2021/12/22 02:41:39;;;;;;;10.90;4.70;;;36.50;53.90;;;;;;5128413;27;20400;-82
2021/12/22 02:44:10;;;;;;;10.07;4.72;;;36.20;54.40;;;;;;5121823;27;20381;-81
2021/12/22 02:46:38;;;;;;;10.38;4.50;;;36.40;54.70;;;;;;5108048;28;20409;-78
2021/12/22 02:49:08;;;;;;;8.48;4.50;;;36.70;53.60;;;;;;5122654;27;20912;-81
2021/12/22 02:51:36;;;;;;;8.95;4.80;;;36.80;53.40;;;;;;5128321;27;20378;-81
2021/12/22 02:54:17;;;;;;;11.13;4.93;;;36.90;52.00;;;;;;5127721;27;20468;-81
2021/12/22 03:04:22;;;;;;;9.73;4.70;;;36.10;54.30;;;;;;5109020;28;20415;-80
2021/12/22 03:07:12;;;;;;;9.67;4.80;;;36.00;54.40;;;;;;5108322;28;20815;-82
2021/12/22 03:09:39;;;;;;;8.40;4.43;;;35.70;54.40;;;;;;5093905;28;20757;-81
2021/12/22 03:12:10;;;;;;;9.70;4.68;;;35.50;55.50;;;;;;5089233;28;20477;-83
2021/12/22 03:14:37;;;;;;;7.28;4.55;;;35.30;55.80;;;;;;5097294;27;20396;-80
2021/12/22 03:17:05;;;;;;;8.02;4.60;;;35.50;55.10;;;;;;5128355;27;20379;-81
2021/12/22 03:19:36;;;;;;;9.40;4.85;;;35.60;55.00;;;;;;5128244;27;20373;-79
2021/12/22 03:22:09;;;;;;;7.72;4.60;;;35.70;54.60;;;;;;5128200;27;20389;-79
2021/12/22 03:24:40;;;;;;;8.47;4.90;;;35.60;55.00;;;;;;5128651;27;20906;-84
2021/12/22 03:27:08;;;;;;;9.32;4.60;;;35.70;54.30;;;;;;5128991;27;20840;-82
2021/12/22 03:29:38;;;;;;;9.45;4.60;;;35.50;53.40;;;;;;5127069;27;20865;-82
2021/12/22 03:32:09;;;;;;;8.80;4.60;;;35.80;54.30;;;;;;5128827;27;20749;-90
2021/12/22 03:34:37;;;;;;;9.55;4.90;;;36.00;52.50;;;;;;5109676;28;20487;-84
2021/12/22 03:37:07;;;;;;;8.38;4.57;;;36.20;53.10;;;;;;5129110;28;20381;-86
2021/12/22 03:39:35;;;;;;;10.80;4.57;;;36.50;52.50;;;;;;5128273;27;20400;-83
2021/12/22 03:42:04;;;;;;;7.15;4.50;;;36.40;53.10;;;;;;5128148;27;20735;-80
2021/12/22 03:44:31;;;;;;;7.50;4.63;;;36.20;51.60;;;;;;5128029;27;20377;-80
2021/12/22 03:47:00;;;;;;;9.57;4.68;;;36.10;52.00;;;;;;5128183;27;20377;-80
2021/12/22 03:49:28;;;;;;;9.98;4.55;;;35.40;52.90;;;;;;5127979;28;21175;-81
2021/12/22 03:51:55;;;;;;;12.32;4.78;;;34.90;54.70;;;;;;5127867;28;20451;-83
2021/12/22 03:54:22;;;;;;;10.50;4.50;;;34.80;54.70;;;;;;5127519;27;20416;-83
2021/12/22 03:56:50;;;;;;;9.77;4.75;;;35.10;54.40;;;;;;5127728;27;20402;-83
2021/12/22 03:59:17;;;;;;;10.00;4.63;;;35.20;54.80;;;;;;5127852;27;21155;-81
2021/12/22 04:01:46;;;;;;;10.85;4.85;;;35.00;54.30;;;;;;5128117;28;20385;-84
2021/12/22 04:04:16;;;;;;;12.50;4.57;;;34.70;55.10;;;;;;5128471;28;20407;-81
2021/12/22 04:06:43;;;;;;;11.53;4.50;;;34.50;55.60;;;;;;5126882;27;20382;-82
2021/12/22 04:09:12;;;;;;;7.38;4.20;;;34.40;54.60;;;;;;5104916;28;20389;-85
2021/12/22 04:11:39;;;;;;;7.40;4.50;;;34.50;54.70;;;;;;5109496;28;20465;-84
2021/12/22 04:14:07;;;;;;;9.93;4.63;;;34.60;55.70;;;;;;5113995;28;20472;-82
2021/12/22 04:16:37;;;;;;;7.63;4.57;;;34.90;53.60;;;;;;5129327;27;20422;-84
2021/12/22 04:19:04;;;;;;;8.45;4.20;;;35.10;53.60;;;;;;5130065;27;20365;-88
2021/12/22 04:21:34;;;;;;;7.97;4.50;;;35.00;53.20;;;;;;5129991;27;20384;-83
2021/12/22 04:24:06;;;;;;;8.57;4.70;;;34.60;53.60;;;;;;5129055;27;20401;-82
2021/12/22 04:26:36;;;;;;;10.23;4.78;;;34.50;54.20;;;;;;5132388;27;20433;-85
2021/12/22 04:29:03;;;;;;;7.55;4.70;;;34.70;54.80;;;;;;5131868;27;20361;-81
2021/12/22 04:31:31;;;;;;;8.88;4.60;;;34.60;54.50;;;;;;5130833;27;20385;-79
2021/12/22 04:34:07;;;;;;;7.80;4.30;;;34.90;53.50;;;;;;5131556;27;20365;-83
2021/12/22 04:36:35;;;;;;;9.55;4.38;;;35.40;53.40;;;;;;5131066;27;20404;-79
2021/12/22 04:39:06;;;;;;;9.27;4.47;;;35.70;52.90;;;;;;5131304;27;20392;-78
2021/12/22 04:41:39;;;;;;;10.60;4.30;;;36.10;52.10;;;;;;5112467;27;20399;-81
2021/12/22 04:44:12;;;;;;;9.38;4.28;;;36.20;51.30;;;;;;5131510;27;20377;-86
2021/12/22 04:46:40;;;;;;;10.20;4.18;;;36.20;51.50;;;;;;5131870;27;20385;-81
2021/12/22 04:49:07;;;;;;;10.05;4.15;;;35.70;51.80;;;;;;5115326;27;20369;-80
2021/12/22 04:51:47;;;;;;;9.75;4.03;;;35.50;52.60;;;;;;5131219;27;20416;-82
2021/12/22 04:54:29;;;;;;;11.25;4.30;;;35.20;53.10;;;;;;5133504;27;20365;-86
2021/12/22 04:56:57;;;;;;;9.57;4.13;;;35.40;52.20;;;;;;5132683;27;20424;-80
2021/12/22 04:59:24;;;;;;;9.80;4.00;;;35.90;51.50;;;;;;5131715;27;20457;-84
2021/12/22 05:01:52;;;;;;;11.07;4.23;;;36.50;51.20;;;;;;5131420;27;20377;-82
2021/12/22 05:04:22;;;;;;;10.52;4.47;;;36.90;50.80;;;;;;5131056;27;20525;-83
2021/12/22 05:06:50;;;;;;;8.98;4.15;;;36.80;50.60;;;;;;5120470;27;20389;-79
2021/12/22 05:09:17;;;;;;;10.85;4.18;;;36.30;51.10;;;;;;5114994;27;20373;-80
2021/12/22 05:11:44;;;;;;;12.82;4.53;;;36.10;51.10;;;;;;5125137;27;20386;-83
2021/12/22 05:14:11;;;;;;;13.75;4.90;;;36.00;51.50;;;;;;5124294;27;20377;-81
2021/12/22 05:16:45;;;;;;;11.25;4.30;;;35.70;52.50;;;;;;5129151;27;20405;-82
2021/12/22 05:19:16;;;;;;;11.15;4.60;;;35.10;53.80;;;;;;5130902;27;20372;-81
2021/12/22 05:21:45;;;;;;;14.63;4.40;;;34.80;53.50;;;;;;5127592;27;20397;-85
2021/12/22 05:24:15;;;;;;;14.45;4.75;;;34.30;54.60;;;;;;5120663;27;20375;-87
2021/12/22 05:26:46;;;;;;;12.48;4.78;;;34.20;54.50;;;;;;5130002;27;20483;-84
2021/12/22 05:29:16;;;;;;;13.00;4.60;;;34.10;55.40;;;;;;5129262;27;21300;-84
2021/12/22 05:31:52;;;;;;;14.23;4.90;;;33.80;55.50;;;;;;5129812;27;20372;-81
2021/12/22 05:34:20;;;;;;;13.48;5.10;;;33.40;56.50;;;;;;5130210;27;20397;-87
2021/12/22 05:36:47;;;;;;;10.73;4.53;;;33.00;57.00;;;;;;5130839;27;20411;-85
2021/12/22 05:39:17;;;;;;;11.13;4.70;;;32.70;58.10;;;;;;5131278;27;20741;-83
2021/12/22 05:41:44;;;;;;;12.75;4.80;;;32.60;59.00;;;;;;5131073;27;20461;-82
2021/12/22 05:44:11;;;;;;;11.88;4.80;;;32.90;58.30;;;;;;5131511;27;20365;-86
2021/12/22 05:46:38;;;;;;;11.97;5.37;;;32.90;57.70;;;;;;5127112;27;20389;-88
2021/12/22 05:49:05;;;;;;;14.20;5.30;;;32.80;57.90;;;;;;5132917;27;20404;-82
2021/12/22 05:51:38;;;;;;;12.00;5.33;;;32.80;58.00;;;;;;5131700;27;20383;-78
2021/12/22 05:54:05;;;;;;;12.77;5.30;;;32.80;58.30;;;;;;5128913;27;20373;-82
2021/12/22 05:56:39;;;;;;;12.52;5.00;;;32.60;58.50;;;;;;5130770;27;20403;-86
2021/12/22 05:59:12;;;;;;;14.27;4.97;;;32.50;58.60;;;;;;5130953;27;20373;-81
2021/12/22 06:01:39;;;;;;;13.55;5.63;;;32.50;58.40;;;;;;5132691;27;20377;-86
2021/12/22 06:04:07;;;;;;;12.93;5.32;;;32.30;58.70;;;;;;5131855;27;20408;-83
2021/12/22 06:06:43;;;;;;;16.00;5.47;;;31.70;59.60;;;;;;5131813;27;20376;-81
2021/12/22 06:09:11;;;;;;;15.00;5.65;;;31.50;60.80;;;;;;5131900;27;20456;-81
2021/12/22 06:12:10;;;;;;;13.82;6.10;;;31.00;62.30;;;;;;5130882;27;20860;-84
2021/12/22 06:14:40;;;;;;;13.95;6.05;;;30.60;63.10;;;;;;5124222;27;20389;-85
2021/12/22 06:17:07;;;;;;;15.43;5.65;;;30.50;64.80;;;;;;5130645;27;20737;-84
2021/12/22 06:19:34;;;;;;;12.50;5.40;;;30.40;65.00;;;;;;5131343;27;20380;-84
2021/12/22 06:22:05;;;;;;;16.85;5.50;;;30.70;63.60;;;;;;5131691;27;20443;-85
2021/12/22 06:24:32;;;;;;;14.52;5.40;;;30.60;63.70;;;;;;5131902;27;20791;-86
2021/12/22 06:27:02;;;;;;;17.27;5.53;;;30.60;64.40;;;;;;5131560;27;20370;-82
2021/12/22 06:29:29;;;;;;;15.53;6.00;;;30.60;64.20;;;;;;5130746;27;20460;-86
2021/12/22 06:32:14;;;;;;;14.25;5.60;;;30.90;63.30;;;;;;5111362;27;20391;-84
2021/12/22 06:34:41;;;;;;;11.50;5.20;;;31.30;62.60;;;;;;5128798;27;20460;-86
2021/12/22 06:37:12;;;;;;;13.88;5.28;;;31.70;61.00;;;;;;5130852;27;20733;-83
2021/12/22 06:39:40;;;;;;;11.82;5.35;;;31.40;61.20;;;;;;5129220;27;20430;-84
2021/12/22 06:42:13;;;;;;;13.63;5.55;;;31.20;62.50;;;;;;5113247;27;20372;-89
2021/12/22 06:44:40;;;;;;;11.40;5.40;;;30.90;62.00;;;;;;5130258;27;20388;-83
2021/12/22 06:47:13;;;;;;;14.85;5.63;;;30.60;63.40;;;;;;5130402;27;20794;-89
2021/12/22 06:49:40;;;;;;;13.27;5.82;;;30.10;64.10;;;;;;5132320;27;20466;-88
2021/12/22 06:52:08;;;;;;;12.70;5.53;;;29.60;65.40;;;;;;5130146;27;20452;-85
2021/12/22 06:54:41;;;;;;;16.20;6.05;;;29.00;67.10;;;;;;5128951;27;20808;-83
2021/12/22 06:57:20;;;;;;;11.40;5.50;;;28.60;68.90;;;;;;5129081;27;20887;-87
2021/12/22 06:59:47;;;;;;;12.98;6.00;;;28.50;70.50;;;;;;5116833;27;20985;-85
2021/12/22 07:02:21;;;;;;;15.20;6.53;;;28.20;72.10;;;;;;5128429;27;20420;-86
2021/12/22 07:04:48;;;;;;;16.27;6.25;;;28.00;73.30;;;;;;5127572;27;20903;-85
2021/12/22 07:07:15;;;;;;;13.18;6.10;;;27.70;74.10;;;;;;5127927;27;20786;-81
2021/12/22 07:09:43;;;;;;;14.23;6.10;;;27.50;76.30;;;;;;5129394;27;20737;-87
2021/12/22 07:12:11;;;;;;;16.35;5.90;;;27.40;76.70;;;;;;5127616;27;20432;-85
2021/12/22 07:14:38;;;;;;;14.02;5.82;;;27.30;77.70;;;;;;5128664;27;20429;-84
2021/12/22 07:17:06;;;;;;;18.92;6.20;;;27.10;78.90;;;;;;5109815;27;20397;-87
2021/12/22 07:19:33;;;;;;;17.33;6.30;;;27.00;80.20;;;;;;5112089;28;20864;-84
2021/12/22 07:22:01;;;;;;;16.45;5.72;;;27.00;81.20;;;;;;5130540;27;20860;-89
2021/12/22 07:24:28;;;;;;;12.25;5.38;;;27.10;80.90;;;;;;5130135;27;20456;-81
2021/12/22 07:26:58;;;;;;;13.77;5.60;;;27.10;81.80;;;;;;5127565;27;20384;-85
2021/12/22 07:29:28;;;;;;;14.50;5.50;;;27.00;82.10;;;;;;5128212;27;20398;-82
2021/12/22 07:31:55;;;;;;;15.65;5.63;;;26.90;83.10;;;;;;5128432;27;20747;-81
2021/12/22 07:34:43;;;;;;;15.23;5.38;;;27.00;83.70;;;;;;5128495;27;20365;-84
2021/12/22 07:37:23;;;;;;;15.07;5.28;;;26.90;84.30;;;;;;5127648;27;20392;-85
2021/12/22 07:39:54;;;;;;;13.93;5.30;;;26.70;86.10;;;;;;5129064;27;20448;-84
2021/12/22 07:42:21;;;;;;;14.05;5.22;;;26.40;88.20;;;;;;5129935;27;20377;-84
2021/12/22 07:44:48;;;;;;;11.98;4.75;;;26.20;90.00;;;;;;5130701;28;20382;-84
2021/12/22 07:47:15;;;;;;;12.55;4.90;;;26.10;90.60;;;;;;5135327;27;20388;-83
2021/12/22 07:49:45;;;;;;;14.80;4.95;;;26.00;91.30;;;;;;5135248;27;20380;-82
2021/12/22 07:52:18;;;;;;;13.52;5.03;;;25.90;92.20;;;;;;5115523;28;20415;-86
2021/12/22 07:54:45;;;;;;;15.98;4.93;;;25.80;93.00;;;;;;5136868;27;20365;-83
2021/12/22 07:57:12;;;;;;;15.93;4.80;;;25.70;93.50;;;;;;5140050;27;20426;-84
2021/12/22 07:59:39;;;;;;;13.10;4.63;;;25.60;94.40;;;;;;5139955;27;20364;-83
2021/12/22 08:02:10;;;;;;;14.07;4.57;;;25.60;94.50;;;;;;5139538;27;20389;-84
2021/12/22 08:04:37;;;;;;;14.23;4.63;;;25.50;94.40;;;;;;5139348;27;20373;-83
2021/12/22 08:07:08;;;;;;;14.77;4.60;;;25.40;95.00;;;;;;5139862;27;20393;-84
2021/12/22 08:09:38;;;;;;;12.05;4.50;;;25.50;95.60;;;;;;5140785;27;20452;-83
2021/12/22 08:12:14;;;;;;;14.27;4.70;;;25.40;95.70;;;;;;5142354;27;20393;-82
2021/12/22 08:14:42;;;;;;;13.52;4.60;;;25.30;96.00;;;;;;5140301;27;20396;-82
2021/12/22 08:17:10;;;;;;;14.35;4.80;;;25.30;96.20;;;;;;5141042;27;20381;-83
2021/12/22 08:19:41;;;;;;;12.27;4.60;;;25.10;96.50;;;;;;5141698;27;20402;-85
2021/12/22 08:22:09;;;;;;;12.43;4.50;;;25.10;97.00;;;;;;5142467;27;20377;-82
2021/12/22 08:24:39;;;;;;;14.45;4.47;;;25.00;97.60;;;;;;5143548;27;20434;-85
2021/12/22 08:27:07;;;;;;;12.88;4.20;;;24.90;97.90;;;;;;5142822;27;20395;-84
2021/12/22 08:29:42;;;;;;;12.38;4.15;;;24.90;98.10;;;;;;5136891;27;20365;-84
2021/12/22 08:32:14;;;;;;;14.40;4.35;;;24.90;98.20;;;;;;5135231;27;20514;-85
2021/12/22 08:34:48;;;;;;;12.90;4.25;;;24.90;98.20;;;;;;5114438;27;20898;-82
2021/12/22 08:40:00;;;;;;;10.48;3.80;;;24.80;98.40;;;;;;5132753;27;20460;-83
2021/12/22 08:42:28;;;;;;;12.20;4.10;;;24.80;98.60;;;;;;5117105;27;20400;-81
2021/12/22 08:44:57;;;;;;;11.93;3.95;;;24.80;98.70;;;;;;5136512;27;20436;-82
2021/12/22 08:47:24;;;;;;;13.23;4.28;;;24.70;99.00;;;;;;5116570;27;20380;-81
2021/12/22 08:49:51;;;;;;;10.88;3.90;;;24.70;99.50;;;;;;5134120;27;20510;-81
2021/12/22 08:52:19;;;;;;;11.10;3.92;;;24.70;99.60;;;;;;5134499;27;20384;-81
2021/12/22 08:54:46;;;;;;;10.33;3.83;;;24.80;99.60;;;;;;5134718;27;20899;-82
2021/12/22 08:57:13;;;;;;;13.10;3.90;;;24.80;99.40;;;;;;5134989;27;20775;-82
2021/12/22 08:59:43;;;;;;;11.63;4.00;;;24.80;99.00;;;;;;5133896;27;20378;-82
2021/12/22 09:02:12;;;;;;;13.93;3.95;;;24.70;99.00;;;;;;5133456;27;20396;-83
2021/12/22 09:04:39;;;;;;;12.63;4.05;;;24.60;99.30;;;;;;5113889;27;20426;-80
2021/12/22 09:07:06;;;;;;;12.98;3.95;;;24.50;99.70;;;;;;5132440;27;20389;-82
2021/12/22 09:09:34;;;;;;;12.50;3.78;;;24.50;99.90;;;;;;5131690;27;20373;-82
2021/12/22 09:12:01;;;;;;;13.83;3.90;;;24.50;99.90;;;;;;5132674;27;20417;-82
2021/12/22 09:14:28;;;;;;;12.85;3.92;;;24.50;99.90;;;;;;5132839;27;20404;-82
2021/12/22 09:16:59;;;;;;;13.00;3.70;;;24.50;99.90;;;;;;5133668;27;20405;-81
2021/12/22 09:19:30;;;;;;;13.90;3.92;;;24.40;99.90;;;;;;5132935;27;20851;-81
2021/12/22 09:21:57;;;;;;;12.90;3.60;;;24.30;99.90;;;;;;5114955;27;20400;-84
2021/12/22 09:24:31;;;;;;;12.48;3.83;;;24.30;99.90;;;;;;5133396;27;20373;-81
2021/12/22 09:27:08;;;;;;;13.70;3.55;;;24.30;99.90;;;;;;5134034;27;20538;-80
2021/12/22 09:29:36;;;;;;;11.27;3.47;;;24.20;99.90;;;;;;5131563;27;20450;-82
2021/12/22 09:32:05;;;;;;;11.57;3.47;;;24.20;99.90;;;;;;5134240;27;20384;-81
2021/12/22 09:34:32;;;;;;;13.10;3.60;;;24.10;99.90;;;;;;5134353;27;20380;-81
2021/12/22 09:36:59;;;;;;;10.68;3.40;;;24.20;99.90;;;;;;5132700;27;20408;-82
2021/12/22 09:39:26;;;;;;;14.85;3.70;;;24.10;99.90;;;;;;5133333;27;20489;-81
2021/12/22 09:41:53;;;;;;;12.00;3.20;;;24.10;99.90;;;;;;5132840;27;20388;-80
2021/12/22 09:44:20;;;;;;;10.47;3.43;;;24.10;99.90;;;;;;5132212;27;20391;-81
2021/12/22 09:46:52;;;;;;;13.10;3.72;;;24.00;99.90;;;;;;5123014;27;20388;-82
2021/12/22 09:54:42;;;;;;;13.45;3.60;;;24.00;99.90;;;;;;5133209;27;20373;-81
2021/12/22 09:57:17;;;;;;;12.35;3.67;;;24.00;99.90;;;;;;5132271;27;20438;-82
2021/12/22 09:59:46;;;;;;;11.40;3.57;;;24.10;99.90;;;;;;5133136;27;20395;-83
2021/12/22 10:02:16;;;;;;;12.48;3.42;;;24.10;99.90;;;;;;5132914;27;20425;-82
2021/12/22 10:04:43;;;;;;;15.07;3.90;;;24.10;99.90;;;;;;5133831;27;20373;-83
2021/12/22 10:07:27;;;;;;;11.67;3.83;;;24.10;99.90;;;;;;5134276;27;20412;-86
2021/12/22 10:10:02;;;;;;;13.75;3.90;;;24.00;99.90;;;;;;5130273;27;20388;-83
2021/12/22 10:12:35;;;;;;;11.90;3.60;;;24.10;99.90;;;;;;5133983;27;20474;-81
2021/12/22 10:15:06;;;;;;;13.40;3.55;;;24.00;99.90;;;;;;5135624;27;20751;-85
2021/12/22 10:17:41;;;;;;;12.43;3.85;;;24.00;99.90;;;;;;5133574;27;20381;-83
2021/12/22 10:20:20;;;;;;;13.32;3.80;;;24.00;99.90;;;;;;5132741;27;20392;-84
2021/12/22 10:22:49;;;;;;;12.55;3.67;;;24.00;99.90;;;;;;5133763;27;20381;-82
2021/12/22 10:25:21;;;;;;;12.35;3.78;;;24.00;99.90;;;;;;5134198;27;20736;-81
2021/12/22 10:27:58;;;;;;;11.50;3.60;;;23.90;99.90;;;;;;5136182;27;20383;-83
2021/12/22 10:30:38;;;;;;;15.82;3.88;;;23.80;99.90;;;;;;5135027;27;20385;-84
2021/12/22 10:33:26;;;;;;;12.95;3.70;;;23.80;99.90;;;;;;5137552;27;20377;-85
2021/12/22 10:36:16;;;;;;;11.25;3.60;;;23.80;99.90;;;;;;5131493;27;20970;-84
2021/12/22 10:38:52;;;;;;;13.70;3.50;;;23.80;99.90;;;;;;5120223;27;20412;-82
2021/12/22 10:41:24;;;;;;;14.73;4.10;;;23.80;99.90;;;;;;5130497;27;20388;-83
2021/12/22 10:43:55;;;;;;;10.68;3.80;;;23.80;99.90;;;;;;5130516;27;20383;-83
2021/12/22 10:47:02;;;;;;;12.93;3.88;;;23.80;99.90;;;;;;5130915;27;20625;-82
2021/12/22 10:49:38;;;;;;;12.32;3.78;;;23.70;99.90;;;;;;5125629;27;20392;-83
2021/12/22 10:52:11;;;;;;;13.23;3.67;;;23.80;99.90;;;;;;5130408;27;20864;-83
2021/12/22 10:54:40;;;;;;;13.47;3.57;;;23.70;99.90;;;;;;5132196;27;20503;-84
2021/12/22 10:57:14;;;;;;;13.98;3.55;;;23.60;99.90;;;;;;5131215;27;20422;-83
2021/12/22 10:59:49;;;;;;;14.70;3.90;;;23.60;99.90;;;;;;5129793;27;20376;-81
2021/12/22 11:02:34;;;;;;;13.32;3.90;;;23.60;99.90;;;;;;5132820;27;20393;-81
2021/12/22 11:05:11;;;;;;;13.30;3.90;;;23.60;99.90;;;;;;5130390;27;20373;-84
2021/12/22 11:07:42;;;;;;;14.40;3.92;;;23.60;99.90;;;;;;5111755;27;20741;-83
2021/12/22 11:10:38;;;;;;;13.82;3.88;;;23.60;99.90;;;;;;5130754;27;20380;-81
2021/12/22 11:13:20;;;;;;;13.77;3.85;;;23.60;99.90;;;;;;5122624;27;20385;-81
2021/12/22 11:15:51;;;;;;;13.80;3.70;;;23.50;99.90;;;;;;5130591;27;20436;-80
2021/12/22 11:18:51;;;;;;;14.30;3.83;;;23.50;99.90;;;;;;5132620;27;20373;-81
2021/12/22 11:21:52;;;;;;;13.00;3.72;;;23.60;99.90;;;;;;5123836;27;20374;-83
2021/12/22 11:24:23;;;;;;;15.15;3.70;;;23.60;99.90;;;;;;5121275;27;20512;-82
2021/12/22 11:26:51;;;;;;;17.17;4.40;;;23.70;99.90;;;;;;5131265;27;20906;-82
2021/12/22 11:29:23;;;;;;;14.88;3.78;;;23.70;99.90;;;;;;5130692;27;20411;-83
2021/12/22 11:32:15;;;;;;;;;;;;;;;;;;;;;
2021/12/22 11:34:52;;;;;;;23.95;4.47;;;23.60;99.90;;;;;;5129672;27;20464;-83
2021/12/22 11:37:24;;;;;;;24.27;4.10;;;23.60;99.90;;;;;;5111939;28;20385;-81
2021/12/22 11:39:53;;;;;;;19.63;4.10;;;23.60;99.90;;;;;;5129716;27;20414;-82
2021/12/22 11:42:30;;;;;;;19.70;3.75;;;23.60;99.90;;;;;;5131576;27;20380;-83
2021/12/22 11:45:36;;;;;;;14.82;3.60;;;23.50;99.90;;;;;;5130163;27;20395;-82
2021/12/22 11:48:17;;;;;;;11.97;3.60;;;23.50;99.90;;;;;;5064573;28;20404;-83
2021/12/22 11:50:53;;;;;;;11.70;3.35;;;23.40;99.90;;;;;;5088322;28;20486;-84
2021/12/22 11:53:31;;;;;;;14.50;3.63;;;23.40;99.90;;;;;;5123795;27;20389;-83
2021/12/22 11:56:10;;;;;;;16.35;3.95;;;23.40;99.90;;;;;;5126385;27;20411;-83
2021/12/22 11:58:52;;;;;;;16.05;5.68;;;23.40;99.90;;;;;;5127016;27;20460;-82
2021/12/22 12:01:32;;;;;;;21.02;6.30;;;23.20;99.90;;;;;;5127794;27;20377;-85
2021/12/22 12:04:10;;;;;;;16.10;6.85;;;23.00;99.90;;;;;;5127444;27;20369;-82
2021/12/22 12:07:01;;;;;;;17.83;7.32;;;22.70;99.90;;;;;;5118910;27;20377;-82
2021/12/22 12:09:30;;;;;;;20.05;7.90;;;22.40;99.90;;;;;;5103395;28;20368;-84
2021/12/22 12:12:15;;;;;;;17.80;8.25;;;22.00;99.90;;;;;;5127843;27;20471;-82
2021/12/22 12:23:34;;;;;;;23.17;9.93;;;21.30;99.90;;;;;;5112607;28;20437;-82
2021/12/22 12:26:06;;;;;;;24.23;10.38;;;21.10;99.90;;;;;;5127026;28;20932;-86
2021/12/22 12:28:52;;;;;;;22.55;10.55;;;21.00;99.90;;;;;;5126831;28;20377;-85
2021/12/22 12:31:40;;;;;;;24.25;10.90;;;20.90;99.90;;;;;;5126527;28;20373;-86
2021/12/22 12:34:25;;;;;;;23.67;10.70;;;20.90;99.90;;;;;;5124944;27;20892;-82
2021/12/22 12:36:52;;;;;;;22.23;10.30;;;20.90;99.90;;;;;;5126741;27;20412;-80
2021/12/22 12:39:54;;;;;;;21.55;10.90;;;20.80;99.90;;;;;;5126553;28;20389;-85
2021/12/22 12:42:22;;;;;;;23.00;11.13;;;20.80;99.90;;;;;;5111239;28;20389;-83
2021/12/22 12:44:49;;;;;;;27.73;10.77;;;20.70;99.90;;;;;;5126739;27;20373;-82
2021/12/22 12:47:22;;;;;;;22.35;10.32;;;20.70;99.90;;;;;;5130603;27;20441;-82
2021/12/22 12:49:49;;;;;;;21.48;9.70;;;20.70;99.90;;;;;;5130646;27;20422;-85
2021/12/22 12:52:26;;;;;;;19.13;9.93;;;20.80;99.90;;;;;;5111592;27;20389;-85
2021/12/22 12:55:11;;;;;;;17.10;9.15;;;20.80;99.90;;;;;;5130468;27;20377;-81
2021/12/22 12:57:38;;;;;;;24.30;9.57;;;20.90;99.90;;;;;;5130621;27;20385;-82
2021/12/22 13:00:17;;;;;;;19.75;9.85;;;20.90;99.90;;;;;;5129924;27;20376;-82
2021/12/22 13:02:44;;;;;;;20.40;9.95;;;20.90;99.90;;;;;;5116573;27;20453;-84
2021/12/22 13:05:14;;;;;;;21.83;9.75;;;20.80;99.90;;;;;;5114859;27;20386;-82
2021/12/22 13:07:42;;;;;;;24.15;10.48;;;20.90;99.90;;;;;;5111797;27;20386;-85
2021/12/22 13:10:15;;;;;;;24.85;10.45;;;20.90;99.90;;;;;;5111943;27;20454;-84
2021/12/22 13:18:05;;;;;;;21.48;9.50;;;20.80;99.90;;;;;;5127716;27;20483;-82
2021/12/22 13:20:38;;;;;;;21.75;9.40;;;20.90;99.90;;;;;;5129985;27;20494;-84
2021/12/22 13:23:09;;;;;;;20.77;9.85;;;20.90;99.90;;;;;;5128528;27;20424;-82
2021/12/22 13:25:41;;;;;;;18.90;9.07;;;20.90;99.90;;;;;;5135998;27;20416;-84
2021/12/22 13:28:08;;;;;;;21.90;9.60;;;20.90;99.90;;;;;;5120317;27;20406;-83
2021/12/22 13:30:48;;;;;;;22.50;9.32;;;20.90;99.90;;;;;;5129464;27;20407;-83
2021/12/22 13:33:20;;;;;;;22.77;9.38;;;21.00;99.90;;;;;;5128126;27;20377;-84
2021/12/22 13:35:50;;;;;;;19.48;8.63;;;20.90;99.90;;;;;;5127484;27;20428;-83